Time;durP1;ratioP1;P1;durP2;ratioP2;P2;SDS_P1;SDS_P2;PMS_P1;PMS_P2;Temp;Humidity;BMP_temperature;BMP_pressure;BME280_temperature;BME280_humidity;BME280_pressure;Samples;Min_cycle;Max_cycle;Signal;HPM_P1;HPM_P2
2023/05/01 00:01:45;;;;;;;6.95;4.18;;;18.00;78.30;;;;;;10812425;33;20390;-77
2023/05/01 00:07:47;;;;;;;3.78;2.92;;;18.10;78.90;;;;;;10824397;33;20322;-75
2023/05/01 00:13:50;;;;;;;5.45;3.53;;;18.00;78.90;;;;;;10820945;33;20028;-73
2023/05/01 00:19:53;;;;;;;4.93;3.62;;;17.90;78.70;;;;;;10820371;33;20036;-72
2023/05/01 00:25:55;;;;;;;6.05;4.22;;;17.90;78.90;;;;;;10810684;33;20019;-74
2023/05/01 00:31:57;;;;;;;4.95;3.85;;;17.90;78.80;;;;;;10823801;33;20008;-71
2023/05/01 00:37:59;;;;;;;6.95;4.62;;;17.90;78.80;;;;;;10822389;33;20431;-72
2023/05/01 00:44:01;;;;;;;6.50;4.07;;;17.90;78.60;;;;;;10810065;33;20060;-73
2023/05/01 00:50:04;;;;;;;5.30;3.80;;;17.80;78.50;;;;;;10823353;33;20047;-72
2023/05/01 00:56:07;;;;;;;12.73;5.30;;;17.80;78.30;;;;;;10806252;33;20440;-72
2023/05/01 01:02:11;;;;;;;5.53;3.90;;;17.80;78.30;;;;;;10829221;32;20024;-72
2023/05/01 01:08:22;;;;;;;6.35;3.85;;;17.80;77.90;;;;;;10826735;33;20028;-73
2023/05/01 01:14:39;;;;;;;5.28;4.07;;;17.80;77.90;;;;;;10829300;33;20024;-73
2023/05/01 01:21:04;;;;;;;6.93;3.62;;;17.80;77.80;;;;;;10812255;33;20082;-74
2023/05/01 01:27:45;;;;;;;6.65;4.07;;;17.90;78.00;;;;;;10828564;33;20362;-73
2023/05/01 01:34:13;;;;;;;7.12;5.37;;;17.90;78.10;;;;;;10828771;33;20012;-73
2023/05/01 01:40:18;;;;;;;7.20;4.20;;;17.90;77.70;;;;;;10828658;33;20050;-71
2023/05/01 01:46:36;;;;;;;3.95;2.70;;;17.80;77.90;;;;;;10813064;33;20051;-73
2023/05/01 01:52:39;;;;;;;;;;;17.90;77.70;;;;;;10814953;33;20070;-73
2023/05/01 01:58:44;;;;;;;4.57;3.00;;;17.90;77.50;;;;;;10826054;33;19959;-73
2023/05/01 02:04:56;;;;;;;3.17;2.20;;;17.80;77.20;;;;;;10811436;33;20357;-74
2023/05/01 02:10:59;;;;;;;6.20;4.35;;;17.80;77.50;;;;;;10823308;33;20046;-74
2023/05/01 02:17:03;;;;;;;8.65;4.87;;;17.80;77.10;;;;;;10827560;33;20031;-72
2023/05/01 02:23:06;;;;;;;6.10;3.80;;;17.70;76.80;;;;;;10814169;33;20120;-74
2023/05/01 02:29:09;;;;;;;5.80;4.25;;;17.60;76.00;;;;;;10826426;33;20444;-74
2023/05/01 02:35:11;;;;;;;6.45;4.10;;;17.60;75.90;;;;;;10827056;33;20342;-73
2023/05/01 02:41:15;;;;;;;6.35;4.72;;;17.50;75.50;;;;;;10812886;33;20031;-74
2023/05/01 02:47:21;;;;;;;8.38;5.65;;;17.40;76.20;;;;;;10825207;33;20032;-72
2023/05/01 02:53:24;;;;;;;5.25;3.75;;;17.40;75.60;;;;;;10812935;33;20028;-73
2023/05/01 02:59:26;;;;;;;5.05;3.67;;;17.30;75.90;;;;;;10826251;33;20036;-72
2023/05/01 03:05:28;;;;;;;4.32;3.47;;;17.30;76.20;;;;;;10823965;33;20024;-71
2023/05/01 03:11:30;;;;;;;4.72;3.33;;;17.30;75.40;;;;;;10825984;33;20028;-72
2023/05/01 03:17:33;;;;;;;3.92;3.30;;;17.30;75.50;;;;;;10822941;33;20023;-73
2023/05/01 03:24:09;;;;;;;3.70;2.70;;;17.30;76.30;;;;;;10824111;32;20027;-72
2023/05/01 03:30:11;;;;;;;4.68;3.08;;;17.30;76.70;;;;;;10822833;33;20052;-71
2023/05/01 03:36:15;;;;;;;5.35;3.70;;;17.30;76.30;;;;;;10826059;33;20028;-73
2023/05/01 03:42:17;;;;;;;4.30;3.37;;;17.30;76.90;;;;;;10825651;33;20484;-72
2023/05/01 03:48:20;;;;;;;2.90;2.20;;;17.30;77.10;;;;;;10825053;33;20196;-72
2023/05/01 03:54:22;;;;;;;4.65;3.08;;;17.20;77.00;;;;;;10824877;33;20020;-72
2023/05/01 04:00:25;;;;;;;7.95;3.92;;;17.20;77.60;;;;;;10823121;33;20032;-72
2023/05/01 04:06:27;;;;;;;5.30;3.12;;;17.10;76.90;;;;;;10811364;33;20055;-71
2023/05/01 04:12:29;;;;;;;8.13;3.95;;;16.90;77.10;;;;;;10824762;33;20020;-73
2023/05/01 04:18:31;;;;;;;5.95;3.40;;;17.00;77.00;;;;;;10822850;33;20082;-73
2023/05/01 04:24:35;;;;;;;4.62;3.20;;;16.90;77.30;;;;;;10822047;33;20028;-72
2023/05/01 04:31:05;;;;;;;5.55;4.47;;;17.00;77.20;;;;;;10825036;32;20098;-72
2023/05/01 04:37:07;;;;;;;5.75;3.75;;;16.90;76.20;;;;;;10826723;33;20315;-71
2023/05/01 04:43:10;;;;;;;5.20;3.95;;;16.80;76.30;;;;;;10818854;33;20062;-73
2023/05/01 04:49:14;;;;;;;5.82;3.33;;;16.80;76.10;;;;;;10797773;32;20452;-72
2023/05/01 04:55:17;;;;;;;4.25;3.35;;;16.80;76.80;;;;;;10778194;33;20063;-73
2023/05/01 05:01:20;;;;;;;4.45;3.30;;;17.00;77.10;;;;;;10781649;33;20424;-73
2023/05/01 05:07:22;;;;;;;6.32;3.10;;;17.00;77.10;;;;;;10790947;33;20346;-71
2023/05/01 05:13:27;;;;;;;5.47;3.05;;;16.90;77.30;;;;;;10793862;33;20043;-73
2023/05/01 05:19:29;;;;;;;6.55;3.55;;;16.90;77.70;;;;;;10791314;33;20055;-72
2023/05/01 05:25:40;;;;;;;7.20;5.28;;;16.90;77.40;;;;;;10779552;33;20047;-72
2023/05/01 05:31:42;;;;;;;11.12;6.07;;;16.80;76.50;;;;;;10792055;33;20067;-72
2023/05/01 05:37:44;;;;;;;6.00;3.75;;;16.80;76.50;;;;;;10775976;33;20592;-72
2023/05/01 05:43:46;;;;;;;8.95;5.85;;;16.80;76.20;;;;;;10791433;33;20020;-73
2023/05/01 05:49:48;;;;;;;6.05;4.00;;;16.90;76.40;;;;;;10779559;32;20059;-71
2023/05/01 05:55:49;;;;;;;5.45;4.10;;;16.90;76.50;;;;;;10789953;33;20429;-72
2023/05/01 06:01:52;;;;;;;4.20;3.20;;;17.00;77.00;;;;;;10775234;33;20071;-73
2023/05/01 06:07:54;;;;;;;5.50;3.53;;;17.20;77.30;;;;;;10788720;33;20047;-71
2023/05/01 06:13:57;;;;;;;6.30;3.78;;;17.20;77.80;;;;;;10788694;33;20036;-73
2023/05/01 06:20:00;;;;;;;5.70;4.00;;;17.30;77.90;;;;;;10774452;33;20020;-73
2023/05/01 06:26:02;;;;;;;6.22;4.25;;;17.30;78.40;;;;;;10777460;33;20032;-72
2023/05/01 06:32:05;;;;;;;10.38;3.95;;;17.30;77.30;;;;;;10778006;33;20017;-72
2023/05/01 06:38:07;;;;;;;4.90;4.05;;;17.20;77.20;;;;;;10786515;33;20040;-74
2023/05/01 06:44:09;;;;;;;6.45;4.68;;;17.30;77.20;;;;;;10778292;33;20020;-74
2023/05/01 06:50:13;;;;;;;6.53;4.50;;;17.30;76.10;;;;;;10774815;33;20036;-74
2023/05/01 06:56:15;;;;;;;6.20;4.62;;;17.30;76.10;;;;;;10764047;32;20032;-73
2023/05/01 07:02:17;;;;;;;4.10;2.95;;;17.40;76.00;;;;;;10790144;33;20279;-74
2023/05/01 07:08:19;;;;;;;6.97;4.93;;;17.50;75.70;;;;;;10763826;33;20032;-74
2023/05/01 07:14:21;;;;;;;7.45;5.37;;;17.60;75.30;;;;;;10776702;33;20047;-72
2023/05/01 07:20:23;;;;;;;7.12;5.57;;;17.70;75.20;;;;;;10789021;33;20016;-71
2023/05/01 07:26:28;;;;;;;4.95;3.80;;;17.80;76.30;;;;;;10790077;33;20323;-75
2023/05/01 07:32:30;;;;;;;6.28;3.37;;;17.80;75.20;;;;;;10772286;33;20037;-75
2023/05/01 07:38:33;;;;;;;5.05;3.55;;;17.90;76.10;;;;;;10785733;33;20402;-75
2023/05/01 07:44:35;;;;;;;5.25;4.15;;;18.00;76.00;;;;;;10772120;33;20047;-75
2023/05/01 07:50:38;;;;;;;6.07;4.05;;;18.20;75.50;;;;;;10789877;27;20047;-76
2023/05/01 07:56:40;;;;;;;6.43;5.10;;;18.20;75.10;;;;;;10825037;33;20020;-75
2023/05/01 08:02:42;;;;;;;6.45;4.25;;;18.30;76.20;;;;;;10823564;33;20050;-75
2023/05/01 08:08:45;;;;;;;5.57;3.92;;;18.30;75.90;;;;;;10821645;32;20020;-76
2023/05/01 08:14:47;;;;;;;4.03;2.80;;;18.40;75.20;;;;;;10804587;33;20050;-74
2023/05/01 08:20:49;;;;;;;4.25;2.95;;;18.40;74.60;;;;;;10810460;33;20020;-76
2023/05/01 08:26:51;;;;;;;5.55;3.67;;;18.60;75.40;;;;;;10781683;33;20064;-74
2023/05/01 08:32:54;;;;;;;4.10;2.85;;;18.60;75.20;;;;;;10787110;33;20016;-75
2023/05/01 08:38:56;;;;;;;3.67;2.78;;;18.70;74.20;;;;;;10773338;33;20032;-73
2023/05/01 08:45:00;;;;;;;4.22;2.70;;;18.90;74.30;;;;;;10785699;33;20029;-72
2023/05/01 08:51:03;;;;;;;4.97;3.20;;;19.10;73.80;;;;;;10785433;33;20425;-73
2023/05/01 08:57:07;;;;;;;5.05;3.37;;;19.30;74.50;;;;;;10782094;33;20428;-73
2023/05/01 09:03:12;;;;;;;5.37;2.85;;;19.30;72.20;;;;;;10821572;33;20043;-72
2023/05/01 09:09:15;;;;;;;4.03;2.85;;;19.30;70.60;;;;;;10819384;33;20295;-73
2023/05/01 09:15:17;;;;;;;4.07;2.92;;;19.50;69.80;;;;;;10812860;32;20492;-74
2023/05/01 09:21:20;;;;;;;3.05;1.73;;;19.70;70.90;;;;;;10775113;33;20351;-72
2023/05/01 09:27:22;;;;;;;5.30;3.72;;;19.80;70.20;;;;;;10798193;33;20059;-77
2023/05/01 09:33:25;;;;;;;6.07;3.75;;;19.80;71.60;;;;;;10803581;32;20025;-77
2023/05/01 09:39:27;;;;;;;4.50;2.53;;;19.80;70.00;;;;;;10793426;33;20386;-77
2023/05/01 09:45:29;;;;;;;3.10;2.28;;;19.90;70.60;;;;;;10818112;33;20308;-75
2023/05/01 09:51:33;;;;;;;5.82;2.78;;;19.90;69.70;;;;;;10821050;33;20032;-73
2023/05/01 09:57:37;;;;;;;8.35;3.17;;;20.10;69.30;;;;;;10792311;33;20318;-74
2023/05/01 10:03:41;;;;;;;13.48;3.03;;;20.20;68.60;;;;;;10775791;32;20434;-75
2023/05/01 10:09:43;;;;;;;3.15;2.47;;;20.20;67.30;;;;;;10791204;33;20386;-76
2023/05/01 10:15:46;;;;;;;3.47;2.72;;;20.30;66.00;;;;;;10791451;33;20020;-72
2023/05/01 10:21:48;;;;;;;5.28;2.55;;;20.40;65.90;;;;;;10786532;33;20029;-73
2023/05/01 10:27:51;;;;;;;3.42;2.70;;;20.70;68.00;;;;;;10791066;33;20020;-75
2023/05/01 10:33:54;;;;;;;3.17;2.10;;;20.90;67.10;;;;;;10822455;32;20032;-77
2023/05/01 10:39:57;;;;;;;2.72;1.90;;;20.90;66.30;;;;;;10827348;33;20318;-75
2023/05/01 10:46:18;;;;;;;2.92;2.00;;;21.10;65.30;;;;;;10809124;32;20032;-75
2023/05/01 10:52:20;;;;;;;2.83;2.42;;;21.30;65.10;;;;;;10827306;32;20047;-75
2023/05/01 10:58:38;;;;;;;3.17;2.08;;;21.40;64.40;;;;;;10827646;33;20381;-77
2023/05/01 11:04:51;;;;;;;2.92;2.20;;;21.50;65.00;;;;;;10796339;33;20334;-74
2023/05/01 11:10:53;;;;;;;4.28;2.75;;;21.30;64.00;;;;;;10780583;33;20028;-74
2023/05/01 11:16:55;;;;;;;4.85;2.47;;;21.40;64.30;;;;;;10771133;33;20082;-76
2023/05/01 11:22:58;;;;;;;8.40;2.40;;;21.40;63.80;;;;;;10786096;33;20334;-74
2023/05/01 11:29:00;;;;;;;3.75;1.77;;;21.30;63.50;;;;;;10788129;33;20024;-75
2023/05/01 11:35:03;;;;;;;2.10;1.60;;;21.20;61.50;;;;;;10790947;33;20441;-75
2023/05/01 11:41:05;;;;;;;2.75;1.98;;;21.30;62.10;;;;;;10823562;33;20047;-74
2023/05/01 11:47:07;;;;;;;5.55;2.15;;;21.30;62.60;;;;;;10826246;33;20012;-75
2023/05/01 11:53:13;;;;;;;5.00;2.47;;;21.30;64.40;;;;;;10812121;33;20046;-74
2023/05/01 11:59:16;;;;;;;2.53;1.62;;;21.20;64.50;;;;;;10823234;33;20035;-74
2023/05/01 12:05:18;;;;;;;2.90;2.15;;;21.10;64.50;;;;;;10825201;33;20012;-74
2023/05/01 12:11:20;;;;;;;7.03;3.00;;;21.10;65.10;;;;;;10825137;33;20054;-75
2023/05/01 12:17:22;;;;;;;2.75;1.92;;;20.90;64.60;;;;;;10825216;33;20042;-72
2023/05/01 12:23:33;;;;;;;3.20;2.00;;;20.70;63.90;;;;;;10825370;33;20043;-76
2023/05/01 12:29:45;;;;;;;3.25;2.03;;;20.60;62.90;;;;;;10824665;33;20330;-73
2023/05/01 12:35:49;;;;;;;5.47;2.53;;;20.40;62.80;;;;;;10825315;33;20390;-76
2023/05/01 12:41:53;;;;;;;4.53;2.05;;;20.30;62.60;;;;;;10809987;33;20023;-73
2023/05/01 12:47:55;;;;;;;3.42;1.40;;;20.30;63.10;;;;;;10810488;33;20059;-73
2023/05/01 12:53:57;;;;;;;2.03;1.77;;;20.30;63.30;;;;;;10825117;32;20046;-72
2023/05/01 13:00:03;;;;;;;5.32;2.65;;;20.30;62.80;;;;;;10814994;33;20028;-72
2023/05/01 13:06:05;;;;;;;8.00;1.87;;;20.30;62.80;;;;;;10830395;33;20338;-73
2023/05/01 13:12:09;;;;;;;3.10;1.98;;;20.20;64.50;;;;;;10830859;33;20050;-72
2023/05/01 13:18:11;;;;;;;2.22;1.75;;;20.20;66.00;;;;;;10830469;33;20327;-73
2023/05/01 13:24:13;;;;;;;4.30;2.50;;;20.30;67.30;;;;;;10830429;33;20024;-73
2023/05/01 13:30:21;;;;;;;2.05;1.20;;;20.30;67.10;;;;;;10825863;33;20385;-73
2023/05/01 13:36:25;;;;;;;3.63;1.93;;;20.20;68.00;;;;;;10815939;33;20055;-73
2023/05/01 13:42:27;;;;;;;5.55;2.08;;;20.10;69.40;;;;;;10830314;33;20046;-72
2023/05/01 13:48:30;;;;;;;2.22;1.70;;;20.00;70.60;;;;;;10826079;33;20046;-73
2023/05/01 13:54:33;;;;;;;3.40;2.28;;;20.00;71.30;;;;;;10828058;33;20082;-72
2023/05/01 14:00:35;;;;;;;3.03;1.85;;;20.10;71.70;;;;;;10829074;33;20345;-72
2023/05/01 14:06:45;;;;;;;3.42;2.10;;;20.20;71.40;;;;;;10824544;32;20406;-72
2023/05/01 14:12:47;;;;;;;2.45;1.85;;;20.20;72.10;;;;;;10824570;33;20050;-72
2023/05/01 14:18:53;;;;;;;5.22;2.83;;;20.20;71.90;;;;;;10824930;33;20024;-72
2023/05/01 14:24:56;;;;;;;3.05;2.20;;;20.20;72.20;;;;;;10792538;33;20040;-70
2023/05/01 14:30:58;;;;;;;3.22;1.70;;;20.20;72.30;;;;;;10791183;33;20396;-70
2023/05/01 14:37:00;;;;;;;3.28;1.73;;;20.20;71.30;;;;;;10807882;33;20054;-72
2023/05/01 14:43:02;;;;;;;3.33;2.10;;;20.20;70.90;;;;;;10823357;33;20073;-73
2023/05/01 14:49:05;;;;;;;3.30;1.70;;;20.10;70.90;;;;;;10819524;32;20474;-71
2023/05/01 14:55:09;;;;;;;2.58;1.80;;;20.00;70.80;;;;;;10806799;32;20428;-72
2023/05/01 15:01:13;;;;;;;3.03;1.83;;;20.00;70.30;;;;;;10795663;33;20058;-71
2023/05/01 15:07:16;;;;;;;2.20;1.83;;;19.90;69.90;;;;;;10823496;33;20051;-70
2023/05/01 15:13:18;;;;;;;2.28;1.45;;;19.80;69.70;;;;;;10823318;33;20023;-70
2023/05/01 15:19:21;;;;;;;4.40;2.62;;;19.80;69.60;;;;;;10813177;33;20405;-71
2023/05/01 15:25:23;;;;;;;2.25;1.80;;;19.70;69.40;;;;;;10825661;33;20071;-72
2023/05/01 15:31:25;;;;;;;4.07;2.20;;;19.60;70.00;;;;;;10810881;33;20066;-74
2023/05/01 15:37:30;;;;;;;3.33;2.00;;;19.40;71.30;;;;;;10823825;33;20024;-72
2023/05/01 15:43:32;;;;;;;3.28;2.15;;;19.30;72.20;;;;;;10821619;33;20439;-73
2023/05/01 15:49:34;;;;;;;5.03;2.15;;;19.30;72.70;;;;;;10301382;33;17088435;-75
2023/05/01 15:55:37;;;;;;;4.62;2.12;;;19.20;73.30;;;;;;10738753;33;20022;-75
2023/05/01 16:01:39;;;;;;;5.90;2.12;;;19.30;73.50;;;;;;10752187;33;20346;-74
2023/05/01 16:07:42;;;;;;;3.08;1.92;;;19.30;73.60;;;;;;10752328;33;20402;-74
2023/05/01 16:13:46;;;;;;;2.60;1.98;;;19.30;73.80;;;;;;10733843;33;20323;-74
2023/05/01 16:19:48;;;;;;;2.92;1.85;;;19.30;74.00;;;;;;10751471;33;20028;-72
2023/05/01 16:25:51;;;;;;;2.75;1.80;;;19.20;74.20;;;;;;10725608;33;20354;-72
2023/05/01 16:31:53;;;;;;;1.52;1.42;;;19.10;74.20;;;;;;10737158;33;20105;-72
2023/05/01 16:37:55;;;;;;;5.22;3.37;;;19.10;74.60;;;;;;10746464;33;20056;-73
2023/05/01 16:43:58;;;;;;;3.20;2.12;;;19.00;75.30;;;;;;10741821;33;20063;-73
2023/05/01 16:50:00;;;;;;;3.17;2.85;;;18.90;75.50;;;;;;10751159;33;20392;-73
2023/05/01 16:56:03;;;;;;;5.00;2.85;;;18.80;75.80;;;;;;10751231;33;20013;-74
2023/05/01 17:02:06;;;;;;;4.00;2.97;;;18.60;76.70;;;;;;10733609;33;20040;-75
2023/05/01 17:08:08;;;;;;;2.83;1.95;;;18.50;77.30;;;;;;10750459;33;20035;-76
2023/05/01 17:14:11;;;;;;;4.65;3.40;;;18.30;78.20;;;;;;10780662;33;20055;-75
2023/05/01 17:20:13;;;;;;;4.80;3.28;;;18.20;78.80;;;;;;10784263;33;20056;-76
2023/05/01 17:26:16;;;;;;;5.75;3.83;;;18.10;79.30;;;;;;10787375;33;20449;-75
2023/05/01 17:32:19;;;;;;;5.85;4.03;;;17.90;79.80;;;;;;10782632;33;20046;-75
2023/05/01 17:38:21;;;;;;;5.70;4.22;;;17.80;80.20;;;;;;10750688;33;20051;-75
2023/05/01 17:44:23;;;;;;;5.60;4.07;;;17.80;80.40;;;;;;10809820;32;20077;-76
2023/05/01 17:50:25;;;;;;;5.03;3.67;;;17.80;80.60;;;;;;10751335;32;20067;-74
2023/05/01 17:56:27;;;;;;;4.60;3.45;;;17.70;80.40;;;;;;10763386;32;20045;-74
2023/05/01 18:02:30;;;;;;;4.60;3.03;;;17.50;80.90;;;;;;10746151;32;20324;-75
2023/05/01 18:08:32;;;;;;;4.12;3.20;;;17.50;80.70;;;;;;10749265;33;20154;-76
2023/05/01 18:14:35;;;;;;;2.87;2.47;;;17.50;80.70;;;;;;10730155;33;20032;-76
2023/05/01 18:20:37;;;;;;;4.35;2.97;;;17.50;80.80;;;;;;10734712;33;20089;-75
2023/05/01 18:26:40;;;;;;;8.57;2.92;;;17.50;80.90;;;;;;10744847;33;20047;-76
2023/05/01 18:32:42;;;;;;;2.70;1.75;;;17.50;81.00;;;;;;10738118;33;20060;-75
2023/05/01 18:38:44;;;;;;;3.08;2.35;;;17.60;80.90;;;;;;10704111;33;20437;-77
2023/05/01 18:44:46;;;;;;;2.95;2.10;;;17.60;81.00;;;;;;10719519;33;20054;-77
2023/05/01 18:50:48;;;;;;;2.37;1.80;;;17.60;81.40;;;;;;10716947;33;20028;-77
2023/05/01 18:56:51;;;;;;;3.33;2.42;;;17.60;81.30;;;;;;10883068;32;20402;-78
2023/05/01 19:02:53;;;;;;;5.62;2.95;;;17.70;81.50;;;;;;10906385;32;20058;-77
2023/05/01 19:08:55;;;;;;;4.68;2.62;;;17.70;81.50;;;;;;10906884;32;20054;-77
2023/05/01 19:14:58;;;;;;;3.78;2.70;;;17.70;81.40;;;;;;10903665;32;20054;-76
2023/05/01 19:21:00;;;;;;;4.10;2.67;;;17.70;81.50;;;;;;10906312;32;20349;-76
2023/05/01 19:27:05;;;;;;;3.40;2.60;;;17.70;81.30;;;;;;10832054;32;20035;-76
2023/05/01 19:33:07;;;;;;;3.53;2.53;;;17.70;81.10;;;;;;10752778;33;20043;-76
2023/05/01 19:39:09;;;;;;;3.85;3.28;;;17.60;81.10;;;;;;10747014;33;20037;-76
2023/05/01 19:45:12;;;;;;;4.75;3.05;;;17.70;80.70;;;;;;10753238;33;20417;-76
2023/05/01 19:51:14;;;;;;;3.08;2.20;;;17.70;80.50;;;;;;10739180;33;20028;-76
2023/05/01 19:57:16;;;;;;;2.70;2.15;;;17.70;80.50;;;;;;10752755;33;20021;-75
2023/05/01 20:03:18;;;;;;;3.30;2.45;;;17.70;80.30;;;;;;10751814;33;20033;-76
2023/05/01 20:09:20;;;;;;;5.28;2.42;;;17.70;80.20;;;;;;10746256;33;20453;-75
2023/05/01 20:15:22;;;;;;;5.70;2.15;;;17.60;80.20;;;;;;10719401;32;20419;-75
2023/05/01 20:21:25;;;;;;;4.07;3.00;;;17.50;80.30;;;;;;10723345;33;20024;-76
2023/05/01 20:27:27;;;;;;;3.97;2.55;;;17.50;80.30;;;;;;10750143;32;20491;-75
2023/05/01 20:33:29;;;;;;;4.45;3.33;;;17.50;80.60;;;;;;10736971;33;20047;-75
2023/05/01 20:39:31;;;;;;;4.15;2.30;;;17.50;80.60;;;;;;10738771;33;20050;-75
2023/05/01 20:45:33;;;;;;;6.32;3.25;;;17.50;80.50;;;;;;10750748;33;20347;-75
2023/05/01 20:51:37;;;;;;;4.75;3.58;;;17.30;80.60;;;;;;10747797;33;20025;-75
2023/05/01 20:57:39;;;;;;;5.72;2.33;;;17.30;80.70;;;;;;10750106;33;20047;-75
2023/05/01 21:03:41;;;;;;;4.07;2.65;;;17.30;80.60;;;;;;10747063;33;20040;-75
2023/05/01 21:09:44;;;;;;;3.80;2.90;;;17.20;80.60;;;;;;10750686;33;20095;-76
2023/05/01 21:15:46;;;;;;;6.60;4.40;;;17.20;80.80;;;;;;10753514;33;20028;-75
2023/05/01 21:21:49;;;;;;;4.80;3.55;;;17.10;80.70;;;;;;10757867;33;20048;-75
2023/05/01 21:27:51;;;;;;;5.22;3.05;;;17.00;81.00;;;;;;10757239;33;20342;-74
2023/05/01 21:33:53;;;;;;;5.22;3.72;;;17.00;81.00;;;;;;10757062;33;20056;-72
2023/05/01 21:39:59;;;;;;;6.68;4.05;;;16.80;81.10;;;;;;10743275;33;20189;-72
2023/05/01 21:46:01;;;;;;;5.55;3.85;;;16.70;81.30;;;;;;10742169;33;20037;-72
2023/05/01 21:52:04;;;;;;;5.85;4.55;;;16.50;81.60;;;;;;10755599;33;20055;-72
2023/05/01 21:58:06;;;;;;;10.25;5.45;;;16.30;82.20;;;;;;10756323;33;20374;-72
2023/05/01 22:04:08;;;;;;;6.75;5.55;;;16.20;82.80;;;;;;10755641;33;20048;-72
2023/05/01 22:10:12;;;;;;;7.82;6.07;;;16.20;83.20;;;;;;10755280;33;20051;-71
2023/05/01 22:16:14;;;;;;;6.70;5.07;;;16.00;83.60;;;;;;10742202;33;20020;-71
2023/05/01 22:22:17;;;;;;;8.75;7.78;;;16.00;83.90;;;;;;10755014;33;20047;-71
2023/05/01 22:28:19;;;;;;;6.43;4.62;;;15.90;84.10;;;;;;10754480;33;20043;-71
2023/05/01 22:34:21;;;;;;;5.47;3.72;;;15.80;84.50;;;;;;10740201;33;20033;-71
2023/05/01 22:40:42;;;;;;;7.35;4.93;;;15.90;84.50;;;;;;10740455;33;20342;-71
2023/05/01 22:47:06;;;;;;;7.20;5.70;;;15.90;84.60;;;;;;10741863;33;20056;-74
2023/05/01 22:53:44;;;;;;;5.65;4.72;;;16.00;84.40;;;;;;10751518;33;20029;-72
2023/05/01 22:59:47;;;;;;;8.95;6.85;;;16.00;84.50;;;;;;10754457;33;20060;-71
2023/05/01 23:05:49;;;;;;;4.65;3.03;;;16.00;84.40;;;;;;10753293;33;20021;-71
2023/05/01 23:11:53;;;;;;;7.80;4.45;;;16.00;84.70;;;;;;10753552;33;20043;-71
2023/05/01 23:18:02;;;;;;;8.00;5.90;;;16.00;84.70;;;;;;10752435;33;20051;-71
2023/05/01 23:24:04;;;;;;;6.37;5.05;;;15.90;84.30;;;;;;10751621;33;20052;-71
2023/05/01 23:30:07;;;;;;;6.82;5.07;;;15.90;84.60;;;;;;10740113;33;20047;-71
2023/05/01 23:36:11;;;;;;;5.95;4.50;;;16.00;84.60;;;;;;10739577;33;20028;-71
2023/05/01 23:42:13;;;;;;;6.62;4.45;;;15.90;84.60;;;;;;10752352;33;20029;-71
2023/05/01 23:48:15;;;;;;;6.80;4.62;;;15.90;84.80;;;;;;10738533;33;20063;-72
2023/05/01 23:54:18;;;;;;;7.32;4.45;;;16.00;84.80;;;;;;10753511;27;20316;-71
